sensor_id;sensor_type;location;lat;lon;timestamp;P1;durP1;ratioP1;P2;durP2;ratioP2
8060;SDS011;4073;42.626;25.386;2023-07-13T00:00:35;16.40;;;14.77;;
8060;SDS011;4073;42.626;25.386;2023-07-13T00:03:02;15.20;;;13.60;;
8060;SDS011;4073;42.626;25.386;2023-07-13T00:05:28;16.20;;;13.80;;
8060;SDS011;4073;42.626;25.386;2023-07-13T00:07:53;15.53;;;13.93;;
8060;SDS011;4073;42.626;25.386;2023-07-13T00:10:19;15.37;;;13.77;;
8060;SDS011;4073;42.626;25.386;2023-07-13T00:12:46;15.37;;;12.93;;
8060;SDS011;4073;42.626;25.386;2023-07-13T00:15:13;16.87;;;15.07;;
8060;SDS011;4073;42.626;25.386;2023-07-13T00:17:48;16.53;;;14.63;;
8060;SDS011;4073;42.626;25.386;2023-07-13T00:20:14;17.20;;;15.40;;
8060;SDS011;4073;42.626;25.386;2023-07-13T00:22:40;16.93;;;14.93;;
8060;SDS011;4073;42.626;25.386;2023-07-13T00:25:05;16.50;;;14.53;;
8060;SDS011;4073;42.626;25.386;2023-07-13T00:27:31;17.03;;;15.37;;
8060;SDS011;4073;42.626;25.386;2023-07-13T00:29:57;18.30;;;15.83;;
8060;SDS011;4073;42.626;25.386;2023-07-13T00:32:23;18.80;;;15.60;;
8060;SDS011;4073;42.626;25.386;2023-07-13T00:34:50;17.10;;;14.20;;
8060;SDS011;4073;42.626;25.386;2023-07-13T00:37:16;16.10;;;14.50;;
8060;SDS011;4073;42.626;25.386;2023-07-13T00:39:42;19.37;;;13.40;;
8060;SDS011;4073;42.626;25.386;2023-07-13T00:42:07;17.27;;;14.40;;
8060;SDS011;4073;42.626;25.386;2023-07-13T00:44:33;18.03;;;15.07;;
8060;SDS011;4073;42.626;25.386;2023-07-13T00:46:58;15.53;;;13.83;;
8060;SDS011;4073;42.626;25.386;2023-07-13T00:49:25;15.50;;;14.00;;
8060;SDS011;4073;42.626;25.386;2023-07-13T00:51:56;15.63;;;13.53;;
8060;SDS011;4073;42.626;25.386;2023-07-13T00:54:25;16.93;;;14.07;;
8060;SDS011;4073;42.626;25.386;2023-07-13T00:56:55;16.17;;;13.60;;
8060;SDS011;4073;42.626;25.386;2023-07-13T00:59:24;15.80;;;14.13;;
8060;SDS011;4073;42.626;25.386;2023-07-13T01:01:50;16.63;;;14.93;;
8060;SDS011;4073;42.626;25.386;2023-07-13T01:04:16;15.40;;;13.90;;
8060;SDS011;4073;42.626;25.386;2023-07-13T01:06:42;17.60;;;14.23;;
8060;SDS011;4073;42.626;25.386;2023-07-13T01:09:09;16.30;;;14.63;;
8060;SDS011;4073;42.626;25.386;2023-07-13T01:11:35;16.60;;;15.00;;
8060;SDS011;4073;42.626;25.386;2023-07-13T01:14:01;17.03;;;13.67;;
8060;SDS011;4073;42.626;25.386;2023-07-13T01:16:30;16.67;;;14.97;;
8060;SDS011;4073;42.626;25.386;2023-07-13T01:18:58;16.17;;;14.57;;
8060;SDS011;4073;42.626;25.386;2023-07-13T01:21:26;17.90;;;13.67;;
8060;SDS011;4073;42.626;25.386;2023-07-13T01:23:53;18.90;;;15.90;;
8060;SDS011;4073;42.626;25.386;2023-07-13T01:26:18;16.50;;;14.40;;
8060;SDS011;4073;42.626;25.386;2023-07-13T01:28:44;16.47;;;14.53;;
8060;SDS011;4073;42.626;25.386;2023-07-13T01:31:09;18.83;;;14.43;;
8060;SDS011;4073;42.626;25.386;2023-07-13T01:33:36;16.03;;;14.33;;
8060;SDS011;4073;42.626;25.386;2023-07-13T01:36:04;18.27;;;14.73;;
8060;SDS011;4073;42.626;25.386;2023-07-13T01:38:30;15.80;;;13.97;;
8060;SDS011;4073;42.626;25.386;2023-07-13T01:40:56;15.50;;;13.90;;
8060;SDS011;4073;42.626;25.386;2023-07-13T01:43:21;16.70;;;14.67;;
8060;SDS011;4073;42.626;25.386;2023-07-13T01:45:47;16.03;;;14.50;;
8060;SDS011;4073;42.626;25.386;2023-07-13T01:48:12;19.17;;;15.73;;
8060;SDS011;4073;42.626;25.386;2023-07-13T01:50:38;17.10;;;14.73;;
8060;SDS011;4073;42.626;25.386;2023-07-13T01:53:04;16.83;;;15.17;;
8060;SDS011;4073;42.626;25.386;2023-07-13T01:55:31;16.83;;;15.03;;
8060;SDS011;4073;42.626;25.386;2023-07-13T01:57:57;18.93;;;15.77;;
8060;SDS011;4073;42.626;25.386;2023-07-13T02:00:23;17.00;;;14.57;;
8060;SDS011;4073;42.626;25.386;2023-07-13T02:02:49;17.70;;;15.83;;
8060;SDS011;4073;42.626;25.386;2023-07-13T02:05:15;18.37;;;15.53;;
8060;SDS011;4073;42.626;25.386;2023-07-13T02:07:41;20.30;;;16.07;;
8060;SDS011;4073;42.626;25.386;2023-07-13T02:10:07;18.53;;;16.60;;
8060;SDS011;4073;42.626;25.386;2023-07-13T02:12:34;19.13;;;16.73;;
8060;SDS011;4073;42.626;25.386;2023-07-13T02:14:59;18.53;;;16.63;;
8060;SDS011;4073;42.626;25.386;2023-07-13T02:17:26;18.50;;;16.40;;
8060;SDS011;4073;42.626;25.386;2023-07-13T02:19:52;18.40;;;16.53;;
8060;SDS011;4073;42.626;25.386;2023-07-13T02:22:18;18.27;;;16.00;;
8060;SDS011;4073;42.626;25.386;2023-07-13T02:24:43;18.30;;;16.10;;
8060;SDS011;4073;42.626;25.386;2023-07-13T02:27:09;18.73;;;16.77;;
8060;SDS011;4073;42.626;25.386;2023-07-13T02:29:34;19.30;;;15.90;;
8060;SDS011;4073;42.626;25.386;2023-07-13T02:31:59;17.67;;;15.87;;
8060;SDS011;4073;42.626;25.386;2023-07-13T02:34:25;19.03;;;17.07;;
8060;SDS011;4073;42.626;25.386;2023-07-13T02:36:50;20.47;;;17.33;;
8060;SDS011;4073;42.626;25.386;2023-07-13T02:39:16;18.10;;;16.30;;
8060;SDS011;4073;42.626;25.386;2023-07-13T02:41:42;18.90;;;17.00;;
8060;SDS011;4073;42.626;25.386;2023-07-13T02:44:07;19.27;;;17.27;;
8060;SDS011;4073;42.626;25.386;2023-07-13T02:46:34;18.83;;;16.87;;
8060;SDS011;4073;42.626;25.386;2023-07-13T02:49:00;18.93;;;16.87;;
8060;SDS011;4073;42.626;25.386;2023-07-13T02:51:26;19.00;;;17.17;;
8060;SDS011;4073;42.626;25.386;2023-07-13T02:53:51;21.80;;;17.17;;
8060;SDS011;4073;42.626;25.386;2023-07-13T02:56:17;17.90;;;16.10;;
8060;SDS011;4073;42.626;25.386;2023-07-13T02:58:47;19.53;;;15.97;;
8060;SDS011;4073;42.626;25.386;2023-07-13T03:01:12;18.53;;;16.63;;
8060;SDS011;4073;42.626;25.386;2023-07-13T03:03:38;18.57;;;16.23;;
8060;SDS011;4073;42.626;25.386;2023-07-13T03:06:04;21.27;;;17.60;;
8060;SDS011;4073;42.626;25.386;2023-07-13T03:08:30;19.10;;;16.17;;
8060;SDS011;4073;42.626;25.386;2023-07-13T03:11:03;18.77;;;16.70;;
8060;SDS011;4073;42.626;25.386;2023-07-13T03:13:30;22.03;;;16.93;;
8060;SDS011;4073;42.626;25.386;2023-07-13T03:15:56;19.57;;;16.07;;
8060;SDS011;4073;42.626;25.386;2023-07-13T03:18:22;18.83;;;16.50;;
8060;SDS011;4073;42.626;25.386;2023-07-13T03:20:50;18.50;;;16.60;;
8060;SDS011;4073;42.626;25.386;2023-07-13T03:23:16;20.70;;;16.57;;
8060;SDS011;4073;42.626;25.386;2023-07-13T03:25:42;17.83;;;16.13;;
8060;SDS011;4073;42.626;25.386;2023-07-13T03:28:07;17.10;;;15.33;;
8060;SDS011;4073;42.626;25.386;2023-07-13T03:30:33;17.13;;;14.83;;
8060;SDS011;4073;42.626;25.386;2023-07-13T03:32:58;20.17;;;16.13;;
8060;SDS011;4073;42.626;25.386;2023-07-13T03:35:23;20.57;;;15.83;;
8060;SDS011;4073;42.626;25.386;2023-07-13T03:37:49;17.87;;;15.23;;
8060;SDS011;4073;42.626;25.386;2023-07-13T03:40:14;19.20;;;15.60;;
8060;SDS011;4073;42.626;25.386;2023-07-13T03:42:40;18.83;;;16.27;;
8060;SDS011;4073;42.626;25.386;2023-07-13T03:45:05;18.10;;;15.93;;
8060;SDS011;4073;42.626;25.386;2023-07-13T03:47:31;17.77;;;15.83;;
8060;SDS011;4073;42.626;25.386;2023-07-13T03:49:57;18.70;;;15.10;;
8060;SDS011;4073;42.626;25.386;2023-07-13T03:52:22;20.07;;;16.90;;
8060;SDS011;4073;42.626;25.386;2023-07-13T03:54:48;19.70;;;16.03;;
8060;SDS011;4073;42.626;25.386;2023-07-13T03:57:13;19.87;;;16.20;;
8060;SDS011;4073;42.626;25.386;2023-07-13T03:59:39;19.63;;;17.23;;
8060;SDS011;4073;42.626;25.386;2023-07-13T04:02:04;22.57;;;19.67;;
8060;SDS011;4073;42.626;25.386;2023-07-13T04:04:30;22.10;;;16.67;;
8060;SDS011;4073;42.626;25.386;2023-07-13T04:06:56;21.83;;;19.00;;
8060;SDS011;4073;42.626;25.386;2023-07-13T04:09:23;24.23;;;20.47;;
8060;SDS011;4073;42.626;25.386;2023-07-13T04:11:49;25.83;;;22.43;;
8060;SDS011;4073;42.626;25.386;2023-07-13T04:14:15;25.70;;;23.00;;
8060;SDS011;4073;42.626;25.386;2023-07-13T04:16:40;25.93;;;23.23;;
8060;SDS011;4073;42.626;25.386;2023-07-13T04:19:06;24.37;;;21.80;;
8060;SDS011;4073;42.626;25.386;2023-07-13T04:21:32;22.40;;;20.17;;
8060;SDS011;4073;42.626;25.386;2023-07-13T04:23:58;20.47;;;18.37;;
8060;SDS011;4073;42.626;25.386;2023-07-13T04:26:23;21.50;;;19.30;;
8060;SDS011;4073;42.626;25.386;2023-07-13T04:28:49;20.27;;;18.17;;
8060;SDS011;4073;42.626;25.386;2023-07-13T04:31:16;20.60;;;18.60;;
8060;SDS011;4073;42.626;25.386;2023-07-13T04:33:42;21.70;;;19.33;;
8060;SDS011;4073;42.626;25.386;2023-07-13T04:36:08;21.83;;;19.33;;
8060;SDS011;4073;42.626;25.386;2023-07-13T04:38:34;24.63;;;18.77;;
8060;SDS011;4073;42.626;25.386;2023-07-13T04:41:02;22.17;;;19.83;;
8060;SDS011;4073;42.626;25.386;2023-07-13T04:43:29;22.50;;;19.33;;
8060;SDS011;4073;42.626;25.386;2023-07-13T04:45:55;21.37;;;18.47;;
8060;SDS011;4073;42.626;25.386;2023-07-13T04:48:21;20.93;;;18.83;;
8060;SDS011;4073;42.626;25.386;2023-07-13T04:50:47;21.67;;;19.47;;
8060;SDS011;4073;42.626;25.386;2023-07-13T04:53:13;21.17;;;19.23;;
8060;SDS011;4073;42.626;25.386;2023-07-13T04:55:38;22.30;;;19.63;;
8060;SDS011;4073;42.626;25.386;2023-07-13T04:58:06;20.43;;;18.23;;
8060;SDS011;4073;42.626;25.386;2023-07-13T05:00:31;21.17;;;19.07;;
8060;SDS011;4073;42.626;25.386;2023-07-13T05:02:57;21.57;;;19.10;;
8060;SDS011;4073;42.626;25.386;2023-07-13T05:05:23;23.57;;;20.53;;
8060;SDS011;4073;42.626;25.386;2023-07-13T05:07:52;22.93;;;20.63;;
8060;SDS011;4073;42.626;25.386;2023-07-13T05:10:18;22.03;;;19.70;;
8060;SDS011;4073;42.626;25.386;2023-07-13T05:12:44;23.27;;;20.93;;
8060;SDS011;4073;42.626;25.386;2023-07-13T05:15:09;21.70;;;19.60;;
8060;SDS011;4073;42.626;25.386;2023-07-13T05:17:36;22.80;;;20.43;;
8060;SDS011;4073;42.626;25.386;2023-07-13T05:20:02;21.27;;;19.07;;
8060;SDS011;4073;42.626;25.386;2023-07-13T05:22:27;22.27;;;20.17;;
8060;SDS011;4073;42.626;25.386;2023-07-13T05:24:53;20.93;;;18.67;;
8060;SDS011;4073;42.626;25.386;2023-07-13T05:27:18;22.07;;;18.93;;
8060;SDS011;4073;42.626;25.386;2023-07-13T05:29:44;19.53;;;17.43;;
8060;SDS011;4073;42.626;25.386;2023-07-13T05:32:09;20.57;;;18.60;;
8060;SDS011;4073;42.626;25.386;2023-07-13T05:34:35;20.93;;;18.27;;
8060;SDS011;4073;42.626;25.386;2023-07-13T05:37:00;20.93;;;18.87;;
8060;SDS011;4073;42.626;25.386;2023-07-13T05:39:25;19.90;;;18.00;;
8060;SDS011;4073;42.626;25.386;2023-07-13T05:41:52;19.33;;;17.27;;
8060;SDS011;4073;42.626;25.386;2023-07-13T05:44:18;19.30;;;17.40;;
8060;SDS011;4073;42.626;25.386;2023-07-13T05:46:44;19.27;;;16.97;;
8060;SDS011;4073;42.626;25.386;2023-07-13T05:49:09;19.10;;;17.17;;
8060;SDS011;4073;42.626;25.386;2023-07-13T05:51:35;18.23;;;16.00;;
8060;SDS011;4073;42.626;25.386;2023-07-13T05:54:00;18.43;;;16.67;;
8060;SDS011;4073;42.626;25.386;2023-07-13T05:56:26;18.53;;;16.63;;
8060;SDS011;4073;42.626;25.386;2023-07-13T05:58:51;17.83;;;16.00;;
8060;SDS011;4073;42.626;25.386;2023-07-13T06:01:17;17.80;;;16.00;;
8060;SDS011;4073;42.626;25.386;2023-07-13T06:03:43;17.40;;;15.60;;
8060;SDS011;4073;42.626;25.386;2023-07-13T06:06:09;17.40;;;15.70;;
8060;SDS011;4073;42.626;25.386;2023-07-13T06:08:35;18.20;;;16.50;;
8060;SDS011;4073;42.626;25.386;2023-07-13T06:11:06;18.50;;;15.47;;
8060;SDS011;4073;42.626;25.386;2023-07-13T06:13:34;18.60;;;16.43;;
8060;SDS011;4073;42.626;25.386;2023-07-13T06:16:00;18.27;;;16.47;;
8060;SDS011;4073;42.626;25.386;2023-07-13T06:18:29;17.70;;;15.80;;
8060;SDS011;4073;42.626;25.386;2023-07-13T06:20:55;18.57;;;16.63;;
8060;SDS011;4073;42.626;25.386;2023-07-13T06:23:21;18.90;;;16.67;;
8060;SDS011;4073;42.626;25.386;2023-07-13T06:25:47;19.27;;;16.17;;
8060;SDS011;4073;42.626;25.386;2023-07-13T06:28:12;18.20;;;15.87;;
8060;SDS011;4073;42.626;25.386;2023-07-13T06:30:38;18.10;;;15.27;;
8060;SDS011;4073;42.626;25.386;2023-07-13T06:33:04;15.60;;;14.20;;
8060;SDS011;4073;42.626;25.386;2023-07-13T06:35:30;15.97;;;13.37;;
8060;SDS011;4073;42.626;25.386;2023-07-13T06:37:55;14.17;;;12.73;;
8060;SDS011;4073;42.626;25.386;2023-07-13T06:40:20;14.73;;;13.23;;
8060;SDS011;4073;42.626;25.386;2023-07-13T06:42:46;14.57;;;13.07;;
8060;SDS011;4073;42.626;25.386;2023-07-13T06:45:11;14.40;;;12.80;;
8060;SDS011;4073;42.626;25.386;2023-07-13T06:47:37;15.63;;;12.77;;
8060;SDS011;4073;42.626;25.386;2023-07-13T06:50:02;14.47;;;13.17;;
8060;SDS011;4073;42.626;25.386;2023-07-13T06:52:28;14.10;;;12.63;;
8060;SDS011;4073;42.626;25.386;2023-07-13T06:54:53;13.97;;;12.57;;
8060;SDS011;4073;42.626;25.386;2023-07-13T06:57:19;16.00;;;12.70;;
8060;SDS011;4073;42.626;25.386;2023-07-13T06:59:44;14.53;;;12.97;;
8060;SDS011;4073;42.626;25.386;2023-07-13T07:02:10;13.60;;;12.33;;
8060;SDS011;4073;42.626;25.386;2023-07-13T07:04:36;12.47;;;11.27;;
8060;SDS011;4073;42.626;25.386;2023-07-13T07:07:02;14.33;;;11.73;;
8060;SDS011;4073;42.626;25.386;2023-07-13T07:09:27;12.77;;;11.50;;
8060;SDS011;4073;42.626;25.386;2023-07-13T07:11:55;13.93;;;12.10;;
8060;SDS011;4073;42.626;25.386;2023-07-13T07:14:20;11.63;;;10.53;;
8060;SDS011;4073;42.626;25.386;2023-07-13T07:16:46;12.40;;;10.87;;
8060;SDS011;4073;42.626;25.386;2023-07-13T07:19:11;12.33;;;11.00;;
8060;SDS011;4073;42.626;25.386;2023-07-13T07:21:37;12.53;;;11.33;;
8060;SDS011;4073;42.626;25.386;2023-07-13T07:24:02;11.60;;;10.40;;
8060;SDS011;4073;42.626;25.386;2023-07-13T07:26:29;14.53;;;10.80;;
8060;SDS011;4073;42.626;25.386;2023-07-13T07:28:55;14.73;;;10.57;;
8060;SDS011;4073;42.626;25.386;2023-07-13T07:31:20;13.83;;;10.97;;
8060;SDS011;4073;42.626;25.386;2023-07-13T07:33:46;12.43;;;10.93;;
8060;SDS011;4073;42.626;25.386;2023-07-13T07:36:11;12.20;;;10.93;;
8060;SDS011;4073;42.626;25.386;2023-07-13T07:38:37;11.87;;;10.63;;
8060;SDS011;4073;42.626;25.386;2023-07-13T07:41:03;12.90;;;10.43;;
8060;SDS011;4073;42.626;25.386;2023-07-13T07:43:29;12.23;;;10.93;;
8060;SDS011;4073;42.626;25.386;2023-07-13T07:45:55;12.00;;;10.80;;
8060;SDS011;4073;42.626;25.386;2023-07-13T07:48:21;12.53;;;11.33;;
8060;SDS011;4073;42.626;25.386;2023-07-13T07:50:46;13.17;;;11.97;;
8060;SDS011;4073;42.626;25.386;2023-07-13T07:53:11;16.67;;;11.33;;
8060;SDS011;4073;42.626;25.386;2023-07-13T07:55:37;12.80;;;11.63;;
8060;SDS011;4073;42.626;25.386;2023-07-13T07:58:04;12.80;;;11.23;;
8060;SDS011;4073;42.626;25.386;2023-07-13T08:00:30;11.93;;;10.60;;
8060;SDS011;4073;42.626;25.386;2023-07-13T08:02:56;12.17;;;11.03;;
8060;SDS011;4073;42.626;25.386;2023-07-13T08:05:22;12.10;;;10.90;;
8060;SDS011;4073;42.626;25.386;2023-07-13T08:07:48;15.43;;;11.00;;
8060;SDS011;4073;42.626;25.386;2023-07-13T08:10:14;10.40;;;9.47;;
8060;SDS011;4073;42.626;25.386;2023-07-13T08:12:39;15.47;;;10.93;;
8060;SDS011;4073;42.626;25.386;2023-07-13T08:15:06;12.23;;;11.03;;
8060;SDS011;4073;42.626;25.386;2023-07-13T08:17:34;16.53;;;10.67;;
8060;SDS011;4073;42.626;25.386;2023-07-13T08:20:00;11.97;;;10.43;;
8060;SDS011;4073;42.626;25.386;2023-07-13T08:22:26;10.57;;;9.57;;
8060;SDS011;4073;42.626;25.386;2023-07-13T08:24:52;12.17;;;10.33;;
8060;SDS011;4073;42.626;25.386;2023-07-13T08:27:24;10.90;;;9.80;;
8060;SDS011;4073;42.626;25.386;2023-07-13T08:29:50;11.80;;;10.70;;
8060;SDS011;4073;42.626;25.386;2023-07-13T08:32:18;11.70;;;10.60;;
8060;SDS011;4073;42.626;25.386;2023-07-13T08:34:45;10.63;;;9.13;;
8060;SDS011;4073;42.626;25.386;2023-07-13T08:37:10;10.97;;;9.30;;
8060;SDS011;4073;42.626;25.386;2023-07-13T08:39:36;10.13;;;9.10;;
8060;SDS011;4073;42.626;25.386;2023-07-13T08:42:04;10.90;;;9.80;;
8060;SDS011;4073;42.626;25.386;2023-07-13T08:47:09;10.77;;;9.70;;
8060;SDS011;4073;42.626;25.386;2023-07-13T08:49:38;10.13;;;9.00;;
8060;SDS011;4073;42.626;25.386;2023-07-13T08:52:13;13.07;;;9.77;;
8060;SDS011;4073;42.626;25.386;2023-07-13T08:54:55;10.43;;;9.30;;
8060;SDS011;4073;42.626;25.386;2023-07-13T08:57:31;10.67;;;9.57;;
8060;SDS011;4073;42.626;25.386;2023-07-13T08:59:59;10.30;;;9.20;;
8060;SDS011;4073;42.626;25.386;2023-07-13T09:02:25;12.03;;;9.20;;
8060;SDS011;4073;42.626;25.386;2023-07-13T09:05:04;11.13;;;9.03;;
8060;SDS011;4073;42.626;25.386;2023-07-13T09:10:32;11.17;;;8.13;;
8060;SDS011;4073;42.626;25.386;2023-07-13T09:13:18;9.70;;;8.57;;
8060;SDS011;4073;42.626;25.386;2023-07-13T09:15:45;8.53;;;7.73;;
8060;SDS011;4073;42.626;25.386;2023-07-13T09:18:28;11.20;;;8.30;;
8060;SDS011;4073;42.626;25.386;2023-07-13T09:23:40;8.27;;;6.57;;
8060;SDS011;4073;42.626;25.386;2023-07-13T09:26:09;9.60;;;7.33;;
8060;SDS011;4073;42.626;25.386;2023-07-13T09:28:40;7.90;;;7.20;;
8060;SDS011;4073;42.626;25.386;2023-07-13T09:33:40;7.13;;;6.57;;
8060;SDS011;4073;42.626;25.386;2023-07-13T09:36:24;6.33;;;5.77;;
8060;SDS011;4073;42.626;25.386;2023-07-13T09:39:03;7.60;;;6.50;;
8060;SDS011;4073;42.626;25.386;2023-07-13T09:44:10;8.63;;;7.57;;
8060;SDS011;4073;42.626;25.386;2023-07-13T09:46:37;9.77;;;7.93;;
8060;SDS011;4073;42.626;25.386;2023-07-13T09:49:04;9.77;;;8.47;;
8060;SDS011;4073;42.626;25.386;2023-07-13T09:51:29;7.93;;;7.17;;
8060;SDS011;4073;42.626;25.386;2023-07-13T09:53:55;11.00;;;6.67;;
8060;SDS011;4073;42.626;25.386;2023-07-13T09:56:24;9.33;;;8.47;;
8060;SDS011;4073;42.626;25.386;2023-07-13T09:58:52;15.87;;;8.83;;
8060;SDS011;4073;42.626;25.386;2023-07-13T10:01:31;44.30;;;13.63;;
8060;SDS011;4073;42.626;25.386;2023-07-13T10:03:59;9.47;;;7.00;;
8060;SDS011;4073;42.626;25.386;2023-07-13T10:06:24;8.80;;;7.57;;
8060;SDS011;4073;42.626;25.386;2023-07-13T10:08:53;11.70;;;8.13;;
8060;SDS011;4073;42.626;25.386;2023-07-13T10:11:23;7.87;;;7.10;;
8060;SDS011;4073;42.626;25.386;2023-07-13T10:14:09;9.87;;;8.03;;
8060;SDS011;4073;42.626;25.386;2023-07-13T10:16:38;8.73;;;7.80;;
8060;SDS011;4073;42.626;25.386;2023-07-13T10:21:43;9.70;;;8.80;;
8060;SDS011;4073;42.626;25.386;2023-07-13T10:24:17;8.90;;;7.87;;
8060;SDS011;4073;42.626;25.386;2023-07-13T10:26:47;9.07;;;7.63;;
8060;SDS011;4073;42.626;25.386;2023-07-13T10:29:17;9.40;;;8.50;;
8060;SDS011;4073;42.626;25.386;2023-07-13T10:31:45;9.37;;;8.20;;
8060;SDS011;4073;42.626;25.386;2023-07-13T10:34:11;9.67;;;8.77;;
8060;SDS011;4073;42.626;25.386;2023-07-13T10:36:45;9.67;;;7.67;;
8060;SDS011;4073;42.626;25.386;2023-07-13T10:39:19;8.57;;;7.77;;
8060;SDS011;4073;42.626;25.386;2023-07-13T10:41:49;9.20;;;7.83;;
8060;SDS011;4073;42.626;25.386;2023-07-13T10:44:26;9.83;;;7.73;;
8060;SDS011;4073;42.626;25.386;2023-07-13T10:47:04;9.17;;;8.20;;
8060;SDS011;4073;42.626;25.386;2023-07-13T10:49:33;10.60;;;8.33;;
8060;SDS011;4073;42.626;25.386;2023-07-13T10:52:02;8.37;;;7.60;;
8060;SDS011;4073;42.626;25.386;2023-07-13T11:00:12;8.70;;;7.90;;
8060;SDS011;4073;42.626;25.386;2023-07-13T11:02:42;9.27;;;7.57;;
8060;SDS011;4073;42.626;25.386;2023-07-13T11:07:55;8.90;;;7.20;;
8060;SDS011;4073;42.626;25.386;2023-07-13T11:10:48;7.73;;;6.97;;
8060;SDS011;4073;42.626;25.386;2023-07-13T11:18:49;7.60;;;6.77;;
8060;SDS011;4073;42.626;25.386;2023-07-13T11:21:20;6.93;;;6.33;;
8060;SDS011;4073;42.626;25.386;2023-07-13T11:23:54;7.40;;;6.70;;
8060;SDS011;4073;42.626;25.386;2023-07-13T11:29:32;7.33;;;6.30;;
8060;SDS011;4073;42.626;25.386;2023-07-13T11:32:20;7.73;;;7.03;;
8060;SDS011;4073;42.626;25.386;2023-07-13T11:34:48;7.57;;;6.00;;
8060;SDS011;4073;42.626;25.386;2023-07-13T11:37:15;7.87;;;5.57;;
8060;SDS011;4073;42.626;25.386;2023-07-13T11:39:44;9.70;;;6.00;;
8060;SDS011;4073;42.626;25.386;2023-07-13T11:42:15;9.70;;;6.37;;
8060;SDS011;4073;42.626;25.386;2023-07-13T11:44:42;6.57;;;5.97;;
8060;SDS011;4073;42.626;25.386;2023-07-13T11:47:17;6.27;;;5.67;;
8060;SDS011;4073;42.626;25.386;2023-07-13T11:49:50;8.17;;;5.83;;
8060;SDS011;4073;42.626;25.386;2023-07-13T11:52:27;7.07;;;6.37;;
8060;SDS011;4073;42.626;25.386;2023-07-13T11:55:14;8.93;;;6.00;;
8060;SDS011;4073;42.626;25.386;2023-07-13T11:57:43;8.17;;;6.47;;
8060;SDS011;4073;42.626;25.386;2023-07-13T12:00:15;14.10;;;7.20;;
8060;SDS011;4073;42.626;25.386;2023-07-13T12:02:44;9.83;;;6.43;;
8060;SDS011;4073;42.626;25.386;2023-07-13T12:05:14;9.87;;;6.83;;
8060;SDS011;4073;42.626;25.386;2023-07-13T12:07:42;8.13;;;6.73;;
8060;SDS011;4073;42.626;25.386;2023-07-13T12:12:34;6.90;;;6.27;;
8060;SDS011;4073;42.626;25.386;2023-07-13T12:15:11;7.93;;;5.87;;
8060;SDS011;4073;42.626;25.386;2023-07-13T12:17:37;7.83;;;6.80;;
8060;SDS011;4073;42.626;25.386;2023-07-13T12:20:04;8.70;;;6.37;;
8060;SDS011;4073;42.626;25.386;2023-07-13T12:22:47;10.10;;;6.17;;
8060;SDS011;4073;42.626;25.386;2023-07-13T12:25:14;7.03;;;6.43;;
8060;SDS011;4073;42.626;25.386;2023-07-13T12:27:40;8.30;;;6.90;;
8060;SDS011;4073;42.626;25.386;2023-07-13T12:30:27;8.33;;;6.57;;
8060;SDS011;4073;42.626;25.386;2023-07-13T12:33:06;7.63;;;6.83;;
8060;SDS011;4073;42.626;25.386;2023-07-13T12:35:39;8.03;;;7.00;;
8060;SDS011;4073;42.626;25.386;2023-07-13T12:38:09;11.50;;;6.70;;
8060;SDS011;4073;42.626;25.386;2023-07-13T12:40:36;8.80;;;6.77;;
8060;SDS011;4073;42.626;25.386;2023-07-13T12:43:02;7.77;;;6.30;;
8060;SDS011;4073;42.626;25.386;2023-07-13T12:45:32;7.93;;;7.10;;
8060;SDS011;4073;42.626;25.386;2023-07-13T12:48:37;8.30;;;7.50;;
8060;SDS011;4073;42.626;25.386;2023-07-13T12:50:50;8.23;;;6.60;;
8060;SDS011;4073;42.626;25.386;2023-07-13T12:53:17;10.23;;;6.73;;
8060;SDS011;4073;42.626;25.386;2023-07-13T12:55:46;9.23;;;7.20;;
8060;SDS011;4073;42.626;25.386;2023-07-13T13:00:54;11.57;;;9.07;;
8060;SDS011;4073;42.626;25.386;2023-07-13T13:03:24;10.00;;;6.70;;
8060;SDS011;4073;42.626;25.386;2023-07-13T13:06:01;11.53;;;7.10;;
8060;SDS011;4073;42.626;25.386;2023-07-13T13:08:35;8.37;;;6.80;;
8060;SDS011;4073;42.626;25.386;2023-07-13T13:11:01;7.80;;;7.00;;
8060;SDS011;4073;42.626;25.386;2023-07-13T13:13:27;7.83;;;6.60;;
8060;SDS011;4073;42.626;25.386;2023-07-13T13:15:53;13.30;;;6.53;;
8060;SDS011;4073;42.626;25.386;2023-07-13T13:18:19;13.80;;;7.03;;
8060;SDS011;4073;42.626;25.386;2023-07-13T13:20:47;11.43;;;7.50;;
8060;SDS011;4073;42.626;25.386;2023-07-13T13:23:13;8.97;;;6.60;;
8060;SDS011;4073;42.626;25.386;2023-07-13T13:25:43;11.13;;;7.20;;
8060;SDS011;4073;42.626;25.386;2023-07-13T13:28:13;7.80;;;6.60;;
8060;SDS011;4073;42.626;25.386;2023-07-13T13:30:41;9.10;;;7.17;;
8060;SDS011;4073;42.626;25.386;2023-07-13T13:33:11;12.03;;;6.80;;
8060;SDS011;4073;42.626;25.386;2023-07-13T13:35:40;8.40;;;6.17;;
8060;SDS011;4073;42.626;25.386;2023-07-13T13:38:16;10.17;;;6.97;;
8060;SDS011;4073;42.626;25.386;2023-07-13T13:40:44;10.07;;;7.23;;
8060;SDS011;4073;42.626;25.386;2023-07-13T13:43:17;7.80;;;6.97;;
8060;SDS011;4073;42.626;25.386;2023-07-13T13:45:51;9.20;;;6.87;;
8060;SDS011;4073;42.626;25.386;2023-07-13T13:48:19;9.57;;;7.37;;
8060;SDS011;4073;42.626;25.386;2023-07-13T13:50:57;8.73;;;6.83;;
8060;SDS011;4073;42.626;25.386;2023-07-13T13:53:23;7.40;;;6.30;;
8060;SDS011;4073;42.626;25.386;2023-07-13T13:55:49;10.70;;;7.47;;
8060;SDS011;4073;42.626;25.386;2023-07-13T13:58:15;10.93;;;6.57;;
8060;SDS011;4073;42.626;25.386;2023-07-13T14:00:40;13.17;;;6.70;;
8060;SDS011;4073;42.626;25.386;2023-07-13T14:03:17;12.47;;;6.80;;
8060;SDS011;4073;42.626;25.386;2023-07-13T14:05:44;8.23;;;7.33;;
8060;SDS011;4073;42.626;25.386;2023-07-13T14:08:15;10.30;;;6.93;;
8060;SDS011;4073;42.626;25.386;2023-07-13T14:10:45;14.00;;;7.83;;
8060;SDS011;4073;42.626;25.386;2023-07-13T14:13:20;9.57;;;7.00;;
8060;SDS011;4073;42.626;25.386;2023-07-13T14:15:51;13.07;;;7.63;;
8060;SDS011;4073;42.626;25.386;2023-07-13T14:18:17;12.13;;;6.30;;
8060;SDS011;4073;42.626;25.386;2023-07-13T14:20:43;10.47;;;6.60;;
8060;SDS011;4073;42.626;25.386;2023-07-13T14:23:10;9.13;;;6.80;;
8060;SDS011;4073;42.626;25.386;2023-07-13T14:25:37;10.97;;;7.57;;
8060;SDS011;4073;42.626;25.386;2023-07-13T14:28:24;12.03;;;6.93;;
8060;SDS011;4073;42.626;25.386;2023-07-13T14:30:50;13.70;;;8.20;;
8060;SDS011;4073;42.626;25.386;2023-07-13T14:33:17;13.53;;;6.50;;
8060;SDS011;4073;42.626;25.386;2023-07-13T14:35:42;11.63;;;7.20;;
8060;SDS011;4073;42.626;25.386;2023-07-13T14:38:16;13.07;;;7.57;;
8060;SDS011;4073;42.626;25.386;2023-07-13T14:40:45;12.17;;;7.57;;
8060;SDS011;4073;42.626;25.386;2023-07-13T14:43:11;11.93;;;7.10;;
8060;SDS011;4073;42.626;25.386;2023-07-13T14:45:39;13.50;;;7.23;;
8060;SDS011;4073;42.626;25.386;2023-07-13T14:48:17;8.77;;;6.87;;
8060;SDS011;4073;42.626;25.386;2023-07-13T14:50:45;12.17;;;7.30;;
8060;SDS011;4073;42.626;25.386;2023-07-13T14:53:11;13.07;;;8.07;;
8060;SDS011;4073;42.626;25.386;2023-07-13T14:55:38;8.90;;;6.70;;
8060;SDS011;4073;42.626;25.386;2023-07-13T14:58:04;13.83;;;6.83;;
8060;SDS011;4073;42.626;25.386;2023-07-13T15:00:29;11.63;;;7.43;;
8060;SDS011;4073;42.626;25.386;2023-07-13T15:02:56;13.00;;;7.53;;
8060;SDS011;4073;42.626;25.386;2023-07-13T15:05:27;10.17;;;7.47;;
8060;SDS011;4073;42.626;25.386;2023-07-13T15:07:59;8.43;;;6.93;;
8060;SDS011;4073;42.626;25.386;2023-07-13T15:10:28;10.27;;;7.10;;
8060;SDS011;4073;42.626;25.386;2023-07-13T15:13:13;10.53;;;7.77;;
8060;SDS011;4073;42.626;25.386;2023-07-13T15:15:38;13.10;;;7.50;;
8060;SDS011;4073;42.626;25.386;2023-07-13T15:18:09;10.77;;;8.23;;
8060;SDS011;4073;42.626;25.386;2023-07-13T15:20:36;10.77;;;7.97;;
8060;SDS011;4073;42.626;25.386;2023-07-13T15:23:03;12.17;;;8.20;;
8060;SDS011;4073;42.626;25.386;2023-07-13T15:25:30;12.57;;;8.53;;